createdAt,value
2022-08-16T00:08:59.720Z,24.26
2022-08-16T00:28:59.701Z,24.26
2022-08-16T00:48:59.671Z,24.27
2022-08-16T01:09:00.015Z,24.27
2022-08-16T01:48:59.569Z,24.27
2022-08-16T02:49:00.199Z,24.27
2022-08-16T03:08:59.975Z,24.27
2022-08-16T03:28:59.433Z,24.27
2022-08-16T03:48:59.258Z,24.28
2022-08-16T04:08:59.370Z,24.28
2022-08-16T04:29:14.548Z,24.28
2022-08-16T05:28:59.240Z,24.28
2022-08-16T06:28:59.151Z,24.28
2022-08-16T06:48:59.116Z,24.28
2022-08-16T07:08:58.967Z,24.28
2022-08-16T07:28:58.917Z,24.28
2022-08-16T08:48:59.352Z,24.29
2022-08-16T09:48:58.825Z,24.29
2022-08-16T10:28:58.774Z,24.29
2022-08-16T10:48:58.732Z,24.29
2022-08-16T11:09:24.695Z,24.28
2022-08-16T11:29:14.169Z,24.28
2022-08-16T11:48:58.132Z,24.28
2022-08-16T12:09:00.797Z,24.27
2022-08-16T12:28:58.614Z,24.27
2022-08-16T12:48:58.574Z,24.26
2022-08-16T13:08:58.557Z,24.25
2022-08-16T13:28:58.530Z,24.24
2022-08-16T13:48:58.505Z,24.24
2022-08-16T14:08:58.973Z,24.23
2022-08-16T14:29:02.748Z,24.23
2022-08-16T14:48:57.645Z,24.22
2022-08-16T15:08:58.381Z,24.22
2022-08-16T15:28:58.374Z,24.21
2022-08-16T15:48:58.309Z,24.21
2022-08-16T16:29:06.842Z,24.2
2022-08-16T16:48:58.213Z,24.2
2022-08-16T17:08:57.403Z,24.2
2022-08-16T17:29:02.836Z,24.21
2022-08-16T17:48:58.103Z,24.21
2022-08-16T18:09:01.959Z,24.21
2022-08-16T18:28:58.049Z,24.21
2022-08-16T18:48:57.491Z,24.21
2022-08-16T19:08:58.235Z,24.21
2022-08-16T19:28:58.251Z,24.21
2022-08-16T19:48:57.915Z,24.21
2022-08-16T20:08:57.946Z,24.22
2022-08-16T20:28:57.859Z,24.22
2022-08-16T20:48:57.847Z,24.22
2022-08-16T21:08:57.798Z,24.22
2022-08-16T21:28:57.255Z,24.22
2022-08-16T21:48:57.740Z,24.23
2022-08-16T22:08:57.712Z,24.23
2022-08-16T22:28:56.906Z,24.23
2022-08-16T22:48:57.677Z,24.23
2022-08-16T23:08:57.616Z,24.23
2022-08-16T23:28:57.603Z,24.23
2022-08-16T23:49:45.620Z,24.23
